Flight Track Log - Related Links

Times and Time Zones

All times are in EDT time to prevent confusion due to time zone crossing. See the ASQ4283 flight status page for this flight to view local times or setup timezone preferences in your user account.

Time Position Orientation Groundspeed Altitude Reporting Facility
EDT Latitude Longitude Course Direction KTS MPH feet Rate Location/Type
Sun 10:10:03 PM 29.9950 -95.3636 346° North 162 186 800  Level Houston Center
Sun 10:10:33 PM 30.0075 -95.3839 305° West 175 201 1,700 1,455 Climbing Houston Center
Sun 10:11:09 PM 30.0364 -95.3847 359° North 186 214 2,400 1,423 Climbing Houston Center
Sun 10:12:10 PM 30.0981 -95.3650 15° North 221 254 4,000 1,869 Climbing Houston Center
Sun 10:13:00 PM 30.3154 -95.4182 349° North  Level FlightAware Approximate
Sun 10:13:11 PM 30.1664 -95.3400 18° North 247 284 6,200  Level Houston Center
Sun 10:14:00 PM 30.3989 -95.4378 346° North  Level FlightAware Approximate
Sun 10:14:12 PM 30.2375 -95.3122 19° North 263 303 8,400  Level Houston Center
Sun 10:15:00 PM 30.4817 -95.4614 346° North  Level FlightAware Approximate
Sun 10:15:13 PM 30.3078 -95.3161 357° North 271 312 10,600  Level Houston Center
Sun 10:16:14 PM 30.3733 -95.3664 327° Northwest 281 323 11,800 1,122 Climbing Houston Center
Sun 10:17:16 PM 30.4442 -95.4206 327° Northwest 298 343 12,900 1,024 Climbing Houston Center
Sun 10:18:17 PM 30.5242 -95.4733 330° Northwest 324 373 13,900 1,131 Climbing Houston Center
Sun 10:19:18 PM 30.6353 -95.4981 349° North 336 387 15,200 1,131 Climbing Houston Center
Sun 10:20:19 PM 30.7292 -95.5194 349° North 337 388 16,200 1,033 Climbing Houston Center
Sun 10:21:20 PM 30.8244 -95.5411 349° North 341 392 17,300 1,082 Climbing Houston Center
Sun 10:22:21 PM 30.9228 -95.5631 349° North 353 406 18,400 1,033 Climbing Houston Center
Sun 10:23:22 PM 31.0197 -95.5856 349° North 353 406 19,400 787 Climbing Houston Center
Sun 10:24:23 PM 31.1172 -95.6075 349° North 355 409 20,000 295 Climbing Houston Center
Sun 10:25:24 PM 31.2222 -95.6314 349° North 375 432 20,000  Level Houston Center
Sun 10:26:25 PM 31.3314 -95.6556 349° North 392 451 20,000  Level Houston Center
Sun 10:27:26 PM 31.4322 -95.7122 334° Northwest 400 460 20,000  Level Houston Center
Sun 10:28:27 PM 31.5300 -95.7772 330° Northwest 402 463 20,000  Level Houston Center
Sun 10:29:28 PM 31.6225 -95.8392 330° Northwest 386 444 20,000  Level Houston Center
Sun 10:30:11 PM 31.6886 -95.8900 327° Northwest 362 417 20,000 -175 Level Fort Worth Center
Sun 10:31:11 PM 31.7767 -95.9422 333° Northwest 351 404 19,700 -1,050 Descending Fort Worth Center
Sun 10:32:11 PM 31.8567 -95.9947 331° Northwest 335 386 17,900 -2,200 Descending Fort Worth Center
Sun 10:33:11 PM 31.9389 -96.0522 329° Northwest 340 391 15,300 -2,350 Descending Fort Worth Center
Sun 10:34:11 PM 32.0081 -96.1003 329° Northwest 328 377 13,200 -2,200 Descending Fort Worth Center
Sun 10:35:11 PM 32.0817 -96.1531 329° Northwest 322 371 10,900 -1,700 Descending Fort Worth Center
Sun 10:36:11 PM 32.1553 -96.2011 331° Northwest 317 365 9,800 -950 Descending Fort Worth Center
Sun 10:37:11 PM 32.2289 -96.2444 334° Northwest 280 322 9,000 -400 Descending Fort Worth Center
Sun 10:38:11 PM 32.2875 -96.2781 334° Northwest 263 303 9,000  Level Fort Worth Center
Sun 10:39:11 PM 32.3589 -96.3214 333° Northwest 263 303 9,000  Level Fort Worth Center
Sun 10:40:11 PM 32.4178 -96.3600 331° Northwest 263 303 9,000 -350 Level Fort Worth Center
Sun 10:41:11 PM 32.4767 -96.4208 319° Northwest 263 303 8,300 -600 Descending Fort Worth Center
Sun 10:42:11 PM 32.5250 -96.4747 317° Northwest 263 303 7,800 -550 Descending Fort Worth Center
Sun 10:43:11 PM 32.5819 -96.5406 316° Northwest 258 297 7,200 -750 Descending Fort Worth Center
Sun 10:44:11 PM 32.6283 -96.5944 316° Northwest 253 291 6,300 -1,138 Descending Fort Worth Center
Sun 10:45:07 PM 32.6833 -96.6500 320° Northwest 248 285 5,000 -1,393 Descending Dallas / Fort Worth TRACON

Login

Don't have an account? Register now (free) for customized features, flight alerts, and more!